createdAt,value
2017-08-20T00:00:27.862Z,69.40
2017-08-20T00:02:55.007Z,69.30
2017-08-20T00:05:22.135Z,69.30
2017-08-20T00:07:48.537Z,69.30
2017-08-20T00:10:14.950Z,69.10
2017-08-20T00:12:41.413Z,68.90
2017-08-20T00:15:07.855Z,68.70
2017-08-20T00:17:34.267Z,69.00
2017-08-20T00:20:01.161Z,68.90
2017-08-20T00:22:28.299Z,69.40
2017-08-20T00:24:58.917Z,68.90
2017-08-20T00:27:26.131Z,68.90
2017-08-20T00:29:52.555Z,69.60
2017-08-20T00:32:18.982Z,69.10
2017-08-20T00:34:45.435Z,68.90
2017-08-20T00:37:11.873Z,69.00
2017-08-20T00:39:38.286Z,69.10
2017-08-20T00:42:04.773Z,69.10
2017-08-20T00:44:31.214Z,69.30
2017-08-20T00:46:57.659Z,69.40
2017-08-20T00:49:24.866Z,69.10
2017-08-20T00:51:51.306Z,68.90
2017-08-20T00:54:17.731Z,69.20
2017-08-20T00:56:44.159Z,69.30
2017-08-20T00:59:10.602Z,69.40
2017-08-20T01:01:37.039Z,69.40
2017-08-20T01:04:03.466Z,69.40
2017-08-20T01:06:29.930Z,69.10
2017-08-20T01:08:56.351Z,69.20
2017-08-20T01:11:22.754Z,69.10
2017-08-20T01:13:49.160Z,69.40
2017-08-20T01:16:15.575Z,69.40
2017-08-20T01:18:42.766Z,69.70
2017-08-20T01:21:09.182Z,69.70
2017-08-20T01:23:35.566Z,70.00
2017-08-20T01:26:01.959Z,70.30
2017-08-20T01:28:28.350Z,70.10
2017-08-20T01:30:54.759Z,70.10
2017-08-20T01:33:21.202Z,70.20
2017-08-20T01:35:47.603Z,70.20
2017-08-20T01:38:14.026Z,70.40
2017-08-20T01:40:40.421Z,70.60
2017-08-20T01:43:07.575Z,70.80
2017-08-20T01:45:34.742Z,70.60
2017-08-20T01:48:01.260Z,70.60
2017-08-20T01:50:28.443Z,70.10
2017-08-20T01:52:54.855Z,70.10
2017-08-20T01:55:21.245Z,70.00
2017-08-20T01:57:47.656Z,70.00
2017-08-20T02:00:14.103Z,69.70
2017-08-20T02:02:40.500Z,69.60
2017-08-20T02:05:06.922Z,69.50
2017-08-20T02:07:33.384Z,69.30
2017-08-20T02:09:59.804Z,69.20
2017-08-20T02:12:26.217Z,69.30
2017-08-20T02:14:53.927Z,70.70
2017-08-20T02:17:20.343Z,70.70
2017-08-20T02:19:46.779Z,71.00
2017-08-20T02:22:13.200Z,71.10
2017-08-20T02:24:39.615Z,70.90
2017-08-20T02:27:06.044Z,71.00
2017-08-20T02:29:32.442Z,70.70
2017-08-20T02:31:58.851Z,71.10
2017-08-20T02:34:25.250Z,71.50
2017-08-20T02:36:51.688Z,71.30
2017-08-20T02:39:18.094Z,71.30
2017-08-20T02:41:44.547Z,71.10
2017-08-20T02:44:10.954Z,70.70
2017-08-20T02:46:38.157Z,70.10
2017-08-20T02:49:04.585Z,70.10
2017-08-20T02:51:31.056Z,70.30
2017-08-20T02:53:57.474Z,70.20
2017-08-20T02:56:23.874Z,69.80
2017-08-20T02:58:50.271Z,69.90
2017-08-20T03:01:17.419Z,69.80
2017-08-20T03:03:44.588Z,69.70
2017-08-20T03:06:10.998Z,69.60
2017-08-20T03:08:37.467Z,69.90
2017-08-20T03:11:03.879Z,69.80
2017-08-20T03:13:31.048Z,70.00
2017-08-20T03:15:57.504Z,70.00
2017-08-20T03:18:23.923Z,69.70
2017-08-20T03:20:50.371Z,69.50
2017-08-20T03:23:16.781Z,69.40
2017-08-20T03:25:43.178Z,69.60
2017-08-20T03:28:09.615Z,69.50
2017-08-20T03:30:36.767Z,70.00
2017-08-20T03:33:03.902Z,70.40
2017-08-20T03:35:30.310Z,69.60
2017-08-20T03:37:56.731Z,69.70
2017-08-20T03:40:23.158Z,69.50
2017-08-20T03:42:49.566Z,69.30
2017-08-20T03:45:15.994Z,69.00
2017-08-20T03:47:42.424Z,69.10
2017-08-20T03:50:08.859Z,69.10
2017-08-20T03:52:35.357Z,69.20
2017-08-20T03:55:01.795Z,69.10
2017-08-20T03:57:28.200Z,69.40
2017-08-20T03:59:54.618Z,69.80
2017-08-20T04:02:21.038Z,68.90
2017-08-20T04:04:47.435Z,68.90
2017-08-20T04:07:13.826Z,69.00
2017-08-20T04:09:40.234Z,68.50
2017-08-20T04:12:07.659Z,68.00
2017-08-20T04:14:40.523Z,68.00
2017-08-20T04:17:06.934Z,67.90
2017-08-20T04:19:33.332Z,67.50
2017-08-20T04:21:59.751Z,67.50
2017-08-20T04:24:26.915Z,67.30
2017-08-20T04:26:53.328Z,67.30
2017-08-20T04:29:20.503Z,67.80
2017-08-20T04:31:46.923Z,67.10
2017-08-20T04:34:13.342Z,67.20
2017-08-20T04:36:39.743Z,67.10
2017-08-20T04:39:06.274Z,67.10
2017-08-20T04:41:32.706Z,67.00
2017-08-20T04:43:59.108Z,66.70
2017-08-20T04:46:25.524Z,67.00
2017-08-20T04:48:51.927Z,66.70
2017-08-20T04:51:18.326Z,66.60
2017-08-20T04:53:44.772Z,66.80
2017-08-20T04:56:11.185Z,66.70
2017-08-20T04:58:37.659Z,66.60
2017-08-20T05:01:04.086Z,66.50
2017-08-20T05:03:30.483Z,66.40
2017-08-20T05:05:56.927Z,66.10
2017-08-20T05:08:23.670Z,65.70
2017-08-20T05:10:50.074Z,66.00
2017-08-20T05:13:16.476Z,65.80
2017-08-20T05:15:43.678Z,65.60
2017-08-20T05:18:10.108Z,65.50
2017-08-20T05:20:36.516Z,65.40
2017-08-20T05:23:02.922Z,65.00
2017-08-20T05:25:29.351Z,65.00
2017-08-20T05:27:55.758Z,64.70
2017-08-20T05:30:22.254Z,64.50
2017-08-20T05:32:48.662Z,64.50
2017-08-20T05:35:15.831Z,64.10
2017-08-20T05:37:42.242Z,64.10
2017-08-20T05:40:09.386Z,64.00
2017-08-20T05:42:35.782Z,63.90
2017-08-20T05:45:02.204Z,64.10
2017-08-20T05:47:28.594Z,63.70
2017-08-20T05:49:55.761Z,63.60
2017-08-20T05:52:22.167Z,63.60
2017-08-20T05:54:48.595Z,63.40
2017-08-20T05:57:21.446Z,63.50
2017-08-20T05:59:48.875Z,63.40
2017-08-20T06:02:15.397Z,63.40
2017-08-20T06:04:41.814Z,63.10
2017-08-20T06:07:08.972Z,63.30
2017-08-20T06:09:36.111Z,62.90
2017-08-20T06:12:03.271Z,63.20
2017-08-20T06:14:30.398Z,62.90
2017-08-20T06:16:56.811Z,62.80
2017-08-20T06:19:23.202Z,62.80
2017-08-20T06:21:49.633Z,62.30
2017-08-20T06:24:16.042Z,62.60
2017-08-20T06:26:43.171Z,62.00
2017-08-20T06:29:09.577Z,62.00
2017-08-20T06:31:36.002Z,62.20
2017-08-20T06:34:02.416Z,62.00
2017-08-20T06:36:28.851Z,61.80
2017-08-20T06:38:55.277Z,61.80
2017-08-20T06:41:21.686Z,61.80
2017-08-20T06:43:48.815Z,62.10
2017-08-20T06:46:15.235Z,61.60
2017-08-20T06:48:41.678Z,61.60
2017-08-20T06:51:08.086Z,61.50
2017-08-20T06:53:34.491Z,61.30
2017-08-20T06:56:00.919Z,61.20
2017-08-20T06:58:27.360Z,61.40
2017-08-20T07:00:53.803Z,61.30
2017-08-20T07:03:20.235Z,61.30
2017-08-20T07:05:46.694Z,60.90
2017-08-20T07:08:13.120Z,61.40
2017-08-20T07:10:39.531Z,61.20
2017-08-20T07:13:05.942Z,61.70
2017-08-20T07:15:33.095Z,59.90
2017-08-20T07:17:59.491Z,59.90
2017-08-20T07:20:25.907Z,60.40
2017-08-20T07:22:52.318Z,60.60
2017-08-20T07:25:20.347Z,60.20
2017-08-20T07:27:47.494Z,61.10
2017-08-20T07:30:13.892Z,60.70
2017-08-20T07:32:40.326Z,59.40
2017-08-20T07:35:06.715Z,58.50
2017-08-20T07:37:33.119Z,58.30
2017-08-20T07:39:59.527Z,58.50
2017-08-20T07:42:26.013Z,56.30
2017-08-20T07:44:56.388Z,57.60
2017-08-20T07:47:23.803Z,58.00
2017-08-20T07:49:50.218Z,57.00
2017-08-20T07:52:17.354Z,56.50
2017-08-20T07:54:43.856Z,56.50
2017-08-20T07:57:10.299Z,55.80
2017-08-20T07:59:36.795Z,54.00
2017-08-20T08:02:03.223Z,52.80
2017-08-20T08:04:29.622Z,52.40
2017-08-20T08:06:56.059Z,52.00
2017-08-20T08:09:23.214Z,52.90
2017-08-20T08:11:50.347Z,51.00
2017-08-20T08:14:16.748Z,51.00
2017-08-20T08:16:43.180Z,50.30
2017-08-20T08:19:09.593Z,50.70
2017-08-20T08:21:36.004Z,49.10
2017-08-20T08:24:03.170Z,47.70
2017-08-20T08:26:29.570Z,47.80
2017-08-20T08:28:56.721Z,47.90
2017-08-20T08:31:23.875Z,46.90
2017-08-20T08:33:51.014Z,46.30
2017-08-20T08:36:18.181Z,46.60
2017-08-20T08:38:45.342Z,47.40
2017-08-20T08:41:11.742Z,47.40
2017-08-20T08:43:38.166Z,47.00
2017-08-20T08:46:04.576Z,45.90
2017-08-20T08:48:30.983Z,46.10
2017-08-20T08:50:57.474Z,45.70
2017-08-20T08:53:23.874Z,45.50
2017-08-20T08:55:50.276Z,45.40
2017-08-20T08:58:16.704Z,46.40
2017-08-20T09:00:43.115Z,45.10
2017-08-20T09:03:10.298Z,44.90
2017-08-20T09:05:36.717Z,44.90
2017-08-20T09:08:03.170Z,44.60
2017-08-20T09:10:29.566Z,44.30
2017-08-20T09:12:56.730Z,44.10
2017-08-20T09:15:23.974Z,43.80
2017-08-20T09:17:51.120Z,43.50
2017-08-20T09:20:18.352Z,44.90
2017-08-20T09:22:44.808Z,44.30
2017-08-20T09:25:11.966Z,45.00
2017-08-20T09:27:39.131Z,44.30
2017-08-20T09:30:05.522Z,44.30
2017-08-20T09:32:31.946Z,43.90
2017-08-20T09:34:58.383Z,42.80
2017-08-20T09:37:24.786Z,43.30
2017-08-20T09:39:51.200Z,42.30
2017-08-20T09:42:17.598Z,42.50
2017-08-20T09:44:45.489Z,42.10
2017-08-20T09:47:11.920Z,42.00
2017-08-20T09:49:39.101Z,42.10
2017-08-20T09:52:05.534Z,42.10
2017-08-20T09:54:31.939Z,41.20
2017-08-20T09:57:00.266Z,41.30
2017-08-20T09:59:26.690Z,42.00
2017-08-20T10:01:53.111Z,41.10
2017-08-20T10:04:19.506Z,40.90
2017-08-20T10:06:46.690Z,39.60
2017-08-20T10:09:13.916Z,41.30
2017-08-20T10:11:40.298Z,41.30
2017-08-20T10:14:06.703Z,40.60
2017-08-20T10:16:33.118Z,40.30
2017-08-20T10:18:59.594Z,41.40
2017-08-20T10:21:25.997Z,41.80
2017-08-20T10:23:52.404Z,41.90
2017-08-20T10:26:19.570Z,42.30
2017-08-20T10:28:45.969Z,42.30
2017-08-20T10:31:12.394Z,38.70
2017-08-20T10:33:38.842Z,40.30
2017-08-20T10:36:05.983Z,39.50
2017-08-20T10:38:33.135Z,42.20
2017-08-20T10:40:59.540Z,41.70
2017-08-20T10:43:25.946Z,40.80
2017-08-20T10:45:52.366Z,38.80
2017-08-20T10:48:18.792Z,39.20
2017-08-20T10:50:45.214Z,38.00
2017-08-20T10:53:12.351Z,38.80
2017-08-20T10:55:38.766Z,38.80
2017-08-20T10:58:05.216Z,38.90
2017-08-20T11:00:31.627Z,40.20
2017-08-20T11:03:01.945Z,40.10
2017-08-20T11:05:28.647Z,39.40
2017-08-20T11:07:55.055Z,39.00
2017-08-20T11:10:22.231Z,38.60
2017-08-20T11:12:48.639Z,38.60
2017-08-20T11:15:15.799Z,38.40
2017-08-20T11:17:42.927Z,37.40
2017-08-20T11:20:09.452Z,37.40
2017-08-20T11:22:42.243Z,37.10
2017-08-20T11:25:08.662Z,36.40
2017-08-20T11:27:35.083Z,36.40
2017-08-20T11:30:01.475Z,36.80
2017-08-20T11:32:27.883Z,37.40
2017-08-20T11:34:54.359Z,37.10
2017-08-20T11:37:25.213Z,36.40
2017-08-20T11:39:52.148Z,35.00
2017-08-20T11:42:18.589Z,35.70
2017-08-20T11:44:45.003Z,36.70
2017-08-20T11:47:11.390Z,36.30
2017-08-20T11:49:37.815Z,36.50
2017-08-20T11:52:04.221Z,38.20
2017-08-20T11:54:30.603Z,37.90
2017-08-20T11:56:57.735Z,37.10
2017-08-20T11:59:30.610Z,36.60
2017-08-20T12:01:57.014Z,35.30
2017-08-20T12:04:23.403Z,35.50
2017-08-20T12:06:50.588Z,37.70
2017-08-20T12:09:16.987Z,37.70
2017-08-20T12:11:44.134Z,39.40
2017-08-20T12:14:11.291Z,39.20
2017-08-20T12:16:37.703Z,39.20
2017-08-20T12:19:05.138Z,39.50
2017-08-20T12:21:32.499Z,38.00
2017-08-20T12:23:58.902Z,37.70
2017-08-20T12:26:25.320Z,36.10
2017-08-20T12:28:52.407Z,37.40
2017-08-20T12:31:18.822Z,37.50
2017-08-20T12:33:45.284Z,37.90
2017-08-20T12:36:11.691Z,38.30
2017-08-20T12:38:38.094Z,39.30
2017-08-20T12:41:04.499Z,37.80
2017-08-20T12:43:30.927Z,38.50
2017-08-20T12:45:58.099Z,38.70
2017-08-20T12:48:25.255Z,38.20
2017-08-20T12:50:51.660Z,38.20
2017-08-20T12:53:18.070Z,38.50
2017-08-20T12:55:44.516Z,38.80
2017-08-20T12:58:10.936Z,39.00
2017-08-20T13:00:39.295Z,39.20
2017-08-20T13:03:06.390Z,40.10
2017-08-20T13:05:33.542Z,42.00
2017-08-20T13:08:00.696Z,40.90
2017-08-20T13:10:27.834Z,40.40
2017-08-20T13:12:56.602Z,40.40
2017-08-20T13:15:23.018Z,39.90
2017-08-20T13:17:49.435Z,39.80
2017-08-20T13:20:15.859Z,40.60
2017-08-20T13:22:42.291Z,41.00
2017-08-20T13:25:08.698Z,40.50
2017-08-20T13:27:35.850Z,41.80
2017-08-20T13:30:03.040Z,42.20
2017-08-20T13:32:29.491Z,41.70
2017-08-20T13:34:55.895Z,40.10
2017-08-20T13:37:22.323Z,39.60
2017-08-20T13:39:48.739Z,37.50
2017-08-20T13:42:15.882Z,38.40
2017-08-20T13:44:43.193Z,36.70
2017-08-20T13:47:09.619Z,36.70
2017-08-20T13:49:36.002Z,35.90
2017-08-20T13:52:03.206Z,36.10
2017-08-20T13:54:29.600Z,36.00
2017-08-20T13:56:56.743Z,37.00
2017-08-20T13:59:23.188Z,37.10
2017-08-20T14:01:49.606Z,35.90
2017-08-20T14:04:16.790Z,37.70
2017-08-20T14:06:43.190Z,37.70
2017-08-20T14:09:10.343Z,37.70
2017-08-20T14:11:37.610Z,38.00
2017-08-20T14:14:04.034Z,38.00
2017-08-20T14:16:30.460Z,39.00
2017-08-20T14:19:01.754Z,37.80
2017-08-20T14:21:28.191Z,37.70
2017-08-20T14:23:54.586Z,35.90
2017-08-20T14:26:20.998Z,35.60
2017-08-20T14:28:48.158Z,36.80
2017-08-20T14:31:15.326Z,34.50
2017-08-20T14:33:42.156Z,34.60
2017-08-20T14:36:08.570Z,35.20
2017-08-20T14:38:39.079Z,36.00
2017-08-20T14:41:06.478Z,36.00
2017-08-20T14:43:32.883Z,36.00
2017-08-20T14:46:00.115Z,36.00
2017-08-20T14:48:26.530Z,35.90
2017-08-20T14:50:52.935Z,36.60
2017-08-20T14:53:19.338Z,36.20
2017-08-20T14:55:46.506Z,34.10
2017-08-20T14:58:13.638Z,34.50
2017-08-20T15:00:40.795Z,33.90
2017-08-20T15:03:07.988Z,35.00
2017-08-20T15:05:34.411Z,35.00
2017-08-20T15:08:00.816Z,34.40
2017-08-20T15:10:27.955Z,34.90
2017-08-20T15:12:55.903Z,33.20
2017-08-20T15:15:22.319Z,33.20
2017-08-20T15:17:48.731Z,32.40
2017-08-20T15:20:15.152Z,33.30
2017-08-20T15:22:41.545Z,33.10
2017-08-20T15:25:07.956Z,33.10
2017-08-20T15:27:34.375Z,33.10
2017-08-20T15:30:00.775Z,32.70
2017-08-20T15:32:27.226Z,33.40
2017-08-20T15:34:53.702Z,34.30
2017-08-20T15:37:20.119Z,34.40
2017-08-20T15:39:47.311Z,33.50
2017-08-20T15:42:14.443Z,34.10
2017-08-20T15:44:40.868Z,34.00
2017-08-20T15:47:07.286Z,34.10
2017-08-20T15:49:34.693Z,34.50
2017-08-20T15:52:02.115Z,34.70
2017-08-20T15:54:28.537Z,33.30
2017-08-20T15:56:54.948Z,30.60
2017-08-20T15:59:21.686Z,31.00
2017-08-20T16:01:48.117Z,30.20
2017-08-20T16:04:14.514Z,31.10
2017-08-20T16:06:41.954Z,32.80
2017-08-20T16:09:08.362Z,32.70
2017-08-20T16:11:34.791Z,34.10
2017-08-20T16:14:01.215Z,35.30
2017-08-20T16:16:27.644Z,35.40
2017-08-20T16:18:54.080Z,34.30
2017-08-20T16:21:20.502Z,34.30
2017-08-20T16:23:47.196Z,34.50
2017-08-20T16:26:13.590Z,34.00
2017-08-20T16:28:41.607Z,33.70
2017-08-20T16:31:08.768Z,33.90
2017-08-20T16:33:35.163Z,33.90
2017-08-20T16:36:01.615Z,34.90
2017-08-20T16:38:28.811Z,35.60
2017-08-20T16:40:55.236Z,35.60
2017-08-20T16:43:21.633Z,35.00
2017-08-20T16:45:48.790Z,35.40
2017-08-20T16:48:15.927Z,35.40
2017-08-20T16:50:42.314Z,35.40
2017-08-20T16:53:08.751Z,35.10
2017-08-20T16:55:35.174Z,35.70
2017-08-20T16:58:01.602Z,35.80
2017-08-20T17:00:28.068Z,35.50
2017-08-20T17:02:54.502Z,36.30
2017-08-20T17:05:20.916Z,36.10
2017-08-20T17:07:47.324Z,36.60
2017-08-20T17:10:13.742Z,36.50
2017-08-20T17:12:40.168Z,36.80
2017-08-20T17:15:08.134Z,36.30
2017-08-20T17:17:35.367Z,35.50
2017-08-20T17:20:02.584Z,35.50
2017-08-20T17:22:28.990Z,35.60
2017-08-20T17:24:55.419Z,35.50
2017-08-20T17:27:21.824Z,35.80
2017-08-20T17:29:48.251Z,35.80
2017-08-20T17:32:15.647Z,36.00
2017-08-20T17:34:42.052Z,36.10
2017-08-20T17:37:08.471Z,35.90
2017-08-20T17:39:34.875Z,35.90
2017-08-20T17:42:01.291Z,35.70
2017-08-20T17:44:27.697Z,35.40
2017-08-20T17:46:54.843Z,35.60
2017-08-20T17:49:21.248Z,35.50
2017-08-20T17:51:47.683Z,35.90
2017-08-20T17:54:14.126Z,36.10
2017-08-20T17:56:40.515Z,36.30
2017-08-20T17:59:06.911Z,36.20
2017-08-20T18:01:34.149Z,36.80
2017-08-20T18:04:01.331Z,36.90
2017-08-20T18:06:27.765Z,36.90
2017-08-20T18:08:54.163Z,37.10
2017-08-20T18:11:21.331Z,37.30
2017-08-20T18:13:47.763Z,37.30
2017-08-20T18:16:14.925Z,37.90
2017-08-20T18:18:41.343Z,37.90
2017-08-20T18:21:07.778Z,38.00
2017-08-20T18:23:34.200Z,38.60
2017-08-20T18:26:01.388Z,39.40
2017-08-20T18:28:27.810Z,39.10
2017-08-20T18:30:54.235Z,39.20
2017-08-20T18:33:20.639Z,39.70
2017-08-20T18:35:47.830Z,40.20
2017-08-20T18:38:15.066Z,40.60
2017-08-20T18:40:42.348Z,40.70
2017-08-20T18:43:08.890Z,40.70
2017-08-20T18:45:35.403Z,41.10
2017-08-20T18:48:01.977Z,40.90
2017-08-20T18:50:28.523Z,41.30
2017-08-20T18:52:55.025Z,41.80
2017-08-20T18:55:21.644Z,41.70
2017-08-20T18:57:48.186Z,42.20
2017-08-20T19:00:15.519Z,42.60
2017-08-20T19:02:42.218Z,42.50
2017-08-20T19:05:08.848Z,42.80
2017-08-20T19:07:36.599Z,43.10
2017-08-20T19:10:03.204Z,43.10
2017-08-20T19:12:29.937Z,43.50
2017-08-20T19:14:57.410Z,43.60
2017-08-20T19:17:25.698Z,44.30
2017-08-20T19:19:52.849Z,44.20
2017-08-20T19:22:20.530Z,44.40
2017-08-20T19:24:47.906Z,44.30
2017-08-20T19:27:14.587Z,44.20
2017-08-20T19:29:42.011Z,44.70
2017-08-20T19:32:09.732Z,44.70
2017-08-20T19:34:37.411Z,45.10
2017-08-20T19:37:04.822Z,45.50
2017-08-20T19:39:32.390Z,45.90
2017-08-20T19:41:59.035Z,45.50
2017-08-20T19:44:25.676Z,46.00
2017-08-20T19:46:53.304Z,46.50
2017-08-20T19:49:20.956Z,46.40
2017-08-20T19:51:47.625Z,46.50
2017-08-20T19:54:14.232Z,46.50
2017-08-20T19:56:40.849Z,46.60
2017-08-20T19:59:07.467Z,46.80
2017-08-20T20:01:35.009Z,47.20
2017-08-20T20:04:01.727Z,47.50
2017-08-20T20:06:29.094Z,47.90
2017-08-20T20:08:55.764Z,47.90
2017-08-20T20:11:22.360Z,48.10
2017-08-20T20:13:57.593Z,48.40
2017-08-20T20:16:27.491Z,48.60
2017-08-20T20:18:54.107Z,48.90
2017-08-20T20:21:20.725Z,48.80
2017-08-20T20:23:48.048Z,48.80
2017-08-20T20:26:14.550Z,48.80
2017-08-20T20:28:41.153Z,48.70
2017-08-20T20:31:07.670Z,48.60
2017-08-20T20:33:34.181Z,49.20
2017-08-20T20:36:00.740Z,49.20
2017-08-20T20:38:27.207Z,49.20
2017-08-20T20:40:53.651Z,49.70
2017-08-20T20:43:20.099Z,49.60
2017-08-20T20:45:47.269Z,49.80
2017-08-20T20:48:13.698Z,49.80
2017-08-20T20:50:40.151Z,50.00
2017-08-20T20:53:06.612Z,50.10
2017-08-20T20:55:33.013Z,50.40
2017-08-20T20:57:59.499Z,50.00
2017-08-20T21:00:25.922Z,50.10
2017-08-20T21:02:52.316Z,50.20
2017-08-20T21:05:18.795Z,50.30
2017-08-20T21:07:45.246Z,50.40
2017-08-20T21:10:12.446Z,50.00
2017-08-20T21:12:39.003Z,50.30
2017-08-20T21:15:05.413Z,50.80
2017-08-20T21:17:31.869Z,51.10
2017-08-20T21:19:58.295Z,51.30
2017-08-20T21:22:24.703Z,51.60
2017-08-20T21:24:51.119Z,52.10
2017-08-20T21:27:18.260Z,52.50
2017-08-20T21:29:45.406Z,52.50
2017-08-20T21:32:11.818Z,52.50
2017-08-20T21:34:38.283Z,52.60
2017-08-20T21:37:05.432Z,53.00
2017-08-20T21:39:31.842Z,53.00
2017-08-20T21:41:58.243Z,52.50
2017-08-20T21:44:24.676Z,52.70
2017-08-20T21:46:51.064Z,53.40
2017-08-20T21:49:18.295Z,53.20
2017-08-20T21:51:44.687Z,53.20
2017-08-20T21:54:11.107Z,53.40
2017-08-20T21:56:37.515Z,53.40
2017-08-20T21:59:03.951Z,53.60
2017-08-20T22:01:31.109Z,53.40
2017-08-20T22:03:58.315Z,53.20
2017-08-20T22:06:38.177Z,53.20
2017-08-20T22:09:17.923Z,53.30
2017-08-20T22:11:57.432Z,53.40
2017-08-20T22:14:23.915Z,53.90
2017-08-20T22:16:50.355Z,54.60
2017-08-20T22:19:17.506Z,54.10
2017-08-20T22:21:44.661Z,54.10
2017-08-20T22:24:11.085Z,54.10
2017-08-20T22:26:38.299Z,54.00
2017-08-20T22:29:04.706Z,53.90
2017-08-20T22:31:31.127Z,53.80
2017-08-20T22:33:57.522Z,53.70
2017-08-20T22:36:24.691Z,53.90
2017-08-20T22:38:51.103Z,53.90
2017-08-20T22:41:19.014Z,54.20
2017-08-20T22:43:45.458Z,54.20
2017-08-20T22:46:11.866Z,54.60
2017-08-20T22:48:38.267Z,54.20
2017-08-20T22:51:04.670Z,54.20
2017-08-20T22:53:31.117Z,54.00
2017-08-20T22:55:57.563Z,53.80
2017-08-20T22:58:24.715Z,54.60
2017-08-20T23:00:51.094Z,54.60
2017-08-20T23:03:17.515Z,54.60
2017-08-20T23:05:43.913Z,54.50
2017-08-20T23:08:11.057Z,54.50
2017-08-20T23:10:37.478Z,54.30
2017-08-20T23:13:03.878Z,54.70
2017-08-20T23:15:30.310Z,54.70
2017-08-20T23:17:56.702Z,55.00
2017-08-20T23:20:23.871Z,55.40
2017-08-20T23:22:50.343Z,55.40
2017-08-20T23:25:16.731Z,55.40
2017-08-20T23:27:43.975Z,55.40
2017-08-20T23:30:11.122Z,56.00
2017-08-20T23:32:38.256Z,55.90
2017-08-20T23:35:04.670Z,55.80
2017-08-20T23:37:31.080Z,56.00
2017-08-20T23:39:57.518Z,55.70
2017-08-20T23:42:23.930Z,56.00
2017-08-20T23:44:50.407Z,56.20
2017-08-20T23:47:16.806Z,56.50
2017-08-20T23:49:43.207Z,56.80
2017-08-20T23:52:10.359Z,57.00
2017-08-20T23:54:37.507Z,57.50
2017-08-20T23:57:03.918Z,57.50
2017-08-20T23:59:30.340Z,57.40
